CN-0152 weather

Huian Air Base
Fujian Province, China

Public forecast

Using degrees Celsius for public forecast. Weather courtesy of forecast.io.

Closest aviation weather report (METAR) to Huian Air Base

Report is more than 6 hours old.

Closest report is Quanzhou Jinjiang International Airport, 18.2 nm (33.6 km) SW. Retrieved 2015/03/22 11:00 UTC (5 years ago):

ZSQZ 221100Z 04007MPS 360V080 9999 BKN050 18/06 Q1020 NOSIG

Closest aviation forecast (TAF) to Huian Air Base

Forecast is more than 12 hours old.

Closest forecast is Kinmen Airport, 43.4 nm (80.4 km) SW. Retrieved 2014/06/03 06:15 UTC (5 years ago):

TAF TAF RCBS 030500Z 0306/0324 08010KT 6000 FEW015 BKN032 TEMPO 0306/0312 18005KT 3500 SHRA FEW010 FEW012CB BKN016 TEMPO 0318/0324 1500 BR FEW005 BKN012